Meteo Giornale » Osservazioni meteo Italia » Firenze-Peretola

ore: 23:50 - Osservazioni Meteo Firenze-Peretola
Lat. 43° 48' N Lon. 11° 12' E Alt. 40 metri s.l.m.

sereno Europe/Rome

11 °C

Sereno

Temp. 24 Ore

7 °C

24 °C

Nord

5.5 Km/h

Dew point 8 °C

Umidità 81 %

Visibilità  10 Km

Il sole sorge alle ore 07:31

Il sole tramonta alle ore 18:29

Data e Ora Cielo e Fenomeni T °C DP °C Um. % Pres. hPa Vis. km Vento km/h
Ieri h: 23:50 sereno Sereno 11 8 81 1023 10 N 5.5
Ieri h: 23:20 sereno Sereno 11 8 81 1023 10 N 1.8
Ieri h: 22:50 sereno Sereno 13 9 76 1023 10 N 3.7
Ieri h: 22:20 sereno Sereno 12 8 76 1023 10 E/NE 9.3
Ieri h: 21:50 sereno Sereno 13 8 71 1023 10 N 5.5
Ieri h: 21:20 sereno Sereno 13 8 71 1022 10 N 5.5
Ieri h: 20:50 sereno Sereno 14 9 71 1022 10 N 1.8
Ieri h: 20:20 sereno Sereno 13 9 76 1022 10 N 3.7
Ieri h: 19:50 sereno Sereno 16 10 67 1022 10 N 3.7
Ieri h: 19:20 sereno Sereno 17 11 67 1022 10 N 1.8
Ieri h: 18:50 sereno Sereno 19 10 55 1022 10 N 5.5
Ieri h: 18:20 sereno Sereno 21 10 49 1022 10 N 3.7
Ieri h: 17:50 sereno Sereno 23 9 40 1022 10 O 7.4
Ieri h: 17:20 sereno Sereno 24 8 35 1022 10 N 5.5
Ieri h: 16:50 sereno Sereno 24 9 38 1022 10 N 5.5
Ieri h: 16:20 sereno Sereno 24 8 35 1023 10 N 5.5
Ieri h: 15:50 sereno Sereno 24 9 38 1023 10 N 3.7
Ieri h: 15:20 sereno Sereno 24 9 38 1023 10 N 5.5
Ieri h: 14:50 sereno Sereno 23 8 38 1023 10 N 3.7
Ieri h: 14:20 sereno Sereno 22 9 43 1024 10 N 5.5
Ieri h: 13:50 sereno Sereno 22 9 43 1024 10 N 1.8
Ieri h: 13:20 sereno Sereno 22 9 43 1025 10 N 1.8
Ieri h: 12:50 sereno Sereno 20 9 49 1025 10 N 3.7
Ieri h: 12:20 sereno Sereno 19 10 55 1026 10 N 3.7
Ieri h: 11:50 sereno Sereno 17 9 59 1026 10 N 3.7
Ieri h: 11:20 sereno Sereno 15 9 67 1026 10 N 3.7
Ieri h: 10:50 sereno Sereno 14 9 71 1027 10 N 5.5
Ieri h: 10:20 sereno Sereno 13 9 76 1027 10 N 3.7
Ieri h: 09:50 sereno Sereno 12 9 81 1027 10 N 0
Ieri h: 09:20 sereno Sereno 11 9 87 1027 10 N 0
Ieri h: 08:50 sereno Sereno 10 9 93 1026 10 N 0
Ieri h: 08:20 sereno Sereno 8 7 93 1026 10 N 3.7
Ieri h: 07:50 sereno Sereno 7 6 93 1026 10 N 3.7
Ieri h: 07:20 sereno Sereno 7 6 93 1026 10 N 0
Ieri h: 06:50 sereno Sereno 8 7 93 1026 10 N 5.5
Ieri h: 06:20 sereno Sereno 7 6 93 1026 10 N 3.7
Ieri h: 05:50 sereno Sereno 7 6 93 1026 10 N 1.8
Ieri h: 05:20 sereno Sereno 7 6 93 1026 10 N 0
Ieri h: 04:50 sereno Sereno 8 7 93 1026 10 N 3.7
Ieri h: 04:20 sereno Sereno 8 6 87 1026 10 N 1.8
Ieri h: 03:50 sereno Sereno 8 6 87 1026 10 N 3.7
Ieri h: 03:20 sereno Sereno 8 7 93 1026 10 N 0
Ieri h: 02:50 sereno Sereno 9 8 93 1027 10 N 3.7
Ieri h: 02:20 sereno Sereno 8 6 87 1027 10 N 1.8
Ieri h: 01:50 sereno Sereno 9 8 93 1027 10 N 3.7
Ieri h: 01:20 sereno Sereno 9 7 87 1027 10 N 1.8
Ieri h: 00:50 sereno Sereno 10 7 81 1027 10 N 3.7